Newport, KY (41071)

5:41 PM EDT on July 31, 2015 (GMT -0400)
RMR -- Newport | | Change Station
CLOSE
Current Station
Personal Weather Station
Location: Newport, KY
Elevation: 499 ft
Nearby Weather Stations

Elev 499 ft 39.08 °N, 84.50 °W | Updated 25 minutes ago

Partly Cloudy
Partly Cloudy
88.9 °F
Feels Like 88 °F
N
4.0
Wind Variable Wind from South
Gusts 9.0 mph

Today
High -- | Low -- °F
--% Chance of Precip.
Yesterday
High -- | Low -- °F
Precip. -- in
6:37 AM 8:50 PM
Full, 100% visible
Pressure 29.97 in
Visibility 10.0 miles
Clouds Few 7000 ft
Heat Index 88 °F
Dew Point 59 °F
Humidity 37%
Rainfall 0.00 in
Snow Depth Not available.
UV 6 out of 12
Pollen 6.70 out of 12
Air Quality Not available.
Flu Activity Not available.
METAR KLUK 312053Z 32008G18KT 10SM FEW070 30/13 A2998 RMK AO2 SLP148 T03000133 56014

More Conditions Fewer Conditions

Pressure 29.97 in
Visibility 10.0 miles
Clouds Few 7000 ft
Heat Index 88 °F
Dew Point 59 °F
Humidity 37%
Rainfall 0.00 in
Snow Depth Not available.
UV 6 out of 12
Pollen 6.70 out of 12
Air Quality Not available.
Flu Activity Not available.
METAR KLUK 312053Z 32008G18KT 10SM FEW070 30/13 A2998 RMK AO2 SLP148 T03000133 56014

More Conditions Fewer Conditions

10-Day Weather Forecast

×

Almanac

Astronomy

Jul. 31, 2015 Rise Set
Actual Time
Civil Twilight
Nautical Twilight
Astronomical Twilight
Moon
Length of Visible Light
Length of Day
Tomorrow will be .
, % of the Moon is Illuminated

Today's Extremes

State Highs State Lows

Community

WunderPhotos

Upload Photos

1,842,759 photos uploaded!

WunderBlogs® & News

Nearby

Air Quality

  Air Quality AQ Index Pollutant
Not available.

Snow Depth

Station Depth Elevation

Earthquake Activity

City Distance Mag. Time & Date
Minimum magnitude displayed is 2.5.

Coastal Water Temperatures

Place Temperature

Stations

Nearby Weather Stations

Station Location Temp. Windchill Dew Point Humidity Wind Precip. Elev Updated Type